createdAt,value
2023-03-19T00:01:07.245Z,11.55
2023-03-19T00:03:36.630Z,11.52
2023-03-19T00:06:05.463Z,11.51
2023-03-19T00:08:34.074Z,11.50
2023-03-19T00:11:08.297Z,11.49
2023-03-19T00:13:37.223Z,11.48
2023-03-19T00:16:08.228Z,11.45
2023-03-19T00:18:37.287Z,11.38
2023-03-19T00:21:05.954Z,11.32
2023-03-19T00:23:34.555Z,11.27
2023-03-19T00:26:03.305Z,11.24
2023-03-19T00:28:31.925Z,11.23
2023-03-19T00:31:08.980Z,11.20
2023-03-19T00:33:37.665Z,11.19
2023-03-19T00:36:07.807Z,11.19
2023-03-19T00:38:36.521Z,11.18
2023-03-19T00:41:05.742Z,11.19
2023-03-19T00:43:34.603Z,11.20
2023-03-19T00:46:03.325Z,11.23
2023-03-19T00:48:33.198Z,11.24
2023-03-19T00:51:04.926Z,11.24
2023-03-19T00:53:34.067Z,11.26
2023-03-19T00:56:02.553Z,11.27
2023-03-19T00:58:31.683Z,11.28
2023-03-19T01:01:00.972Z,11.27
2023-03-19T01:03:30.452Z,11.27
2023-03-19T01:06:01.078Z,11.25
2023-03-19T01:08:29.702Z,11.26
2023-03-19T01:11:05.485Z,11.24
2023-03-19T01:13:33.602Z,11.17
2023-03-19T01:16:01.803Z,11.17
2023-03-19T01:18:30.392Z,11.16
2023-03-19T01:21:00.557Z,11.16
2023-03-19T01:23:30.689Z,11.13
2023-03-19T01:25:58.966Z,11.10
2023-03-19T01:28:29.115Z,11.05
2023-03-19T01:31:01.845Z,11.02
2023-03-19T01:33:48.176Z,10.96
2023-03-19T01:36:29.493Z,10.92
2023-03-19T01:39:02.709Z,10.89
2023-03-19T01:41:31.475Z,10.84
2023-03-19T01:44:31.562Z,10.78
2023-03-19T01:47:31.428Z,10.77
2023-03-19T01:50:27.145Z,10.74
2023-03-19T01:53:16.455Z,10.77
2023-03-19T01:56:08.202Z,10.77
2023-03-19T01:58:47.548Z,10.79
2023-03-19T02:01:37.759Z,10.80
2023-03-19T02:04:07.283Z,10.78
2023-03-19T02:06:37.747Z,10.76
2023-03-19T02:09:07.562Z,10.74
2023-03-19T02:11:36.238Z,10.72
2023-03-19T02:14:04.927Z,10.71
2023-03-19T02:16:33.901Z,10.69
2023-03-19T02:19:02.756Z,10.64
2023-03-19T02:21:32.074Z,10.61
2023-03-19T02:24:09.846Z,10.57
2023-03-19T02:26:59.741Z,10.54
2023-03-19T02:29:28.761Z,10.51
2023-03-19T02:32:00.470Z,10.50
2023-03-19T02:34:38.931Z,10.48
2023-03-19T02:37:15.210Z,10.48
2023-03-19T02:39:58.685Z,10.46
2023-03-19T02:42:30.577Z,10.47
2023-03-19T02:44:59.465Z,10.48
2023-03-19T02:47:29.007Z,10.49
2023-03-19T02:49:57.575Z,10.50
2023-03-19T02:52:27.655Z,10.49
2023-03-19T02:54:56.559Z,10.46
2023-03-19T02:57:27.595Z,10.40
2023-03-19T02:59:56.199Z,10.32
2023-03-19T03:02:24.451Z,10.28
2023-03-19T03:04:53.184Z,10.28
2023-03-19T03:07:22.097Z,10.27
2023-03-19T03:09:50.970Z,10.26
2023-03-19T03:12:19.526Z,10.27
2023-03-19T03:14:49.385Z,10.30
2023-03-19T03:17:18.245Z,10.32
2023-03-19T03:19:46.447Z,10.35
2023-03-19T03:22:14.929Z,10.38
2023-03-19T03:24:43.470Z,10.43
2023-03-19T03:27:12.161Z,10.48
2023-03-19T03:29:41.375Z,10.53
2023-03-19T03:32:11.513Z,10.56
2023-03-19T03:34:40.440Z,10.59
2023-03-19T03:37:09.277Z,10.61
2023-03-19T03:39:37.858Z,10.64
2023-03-19T03:42:06.907Z,10.66
2023-03-19T03:44:36.608Z,10.68
2023-03-19T03:47:05.290Z,10.70
2023-03-19T03:49:34.932Z,10.72
2023-03-19T03:52:03.831Z,10.73
2023-03-19T03:54:32.626Z,10.73
2023-03-19T03:57:03.342Z,10.76
2023-03-19T03:59:32.541Z,10.77
2023-03-19T04:02:01.091Z,10.78
2023-03-19T04:04:29.746Z,10.77
2023-03-19T04:06:59.295Z,10.79
2023-03-19T04:09:36.022Z,10.79
2023-03-19T04:12:04.796Z,10.80
2023-03-19T04:14:33.302Z,10.78
2023-03-19T04:17:01.868Z,10.79
2023-03-19T04:19:31.651Z,10.76
2023-03-19T04:22:03.414Z,10.76
2023-03-19T04:24:33.629Z,10.75
2023-03-19T04:27:02.375Z,10.74
2023-03-19T04:29:31.414Z,10.74
2023-03-19T04:32:00.896Z,10.76
2023-03-19T04:34:29.854Z,10.76
2023-03-19T04:36:59.798Z,10.76
2023-03-19T04:39:28.996Z,10.77
2023-03-19T04:41:57.669Z,10.78
2023-03-19T04:44:31.023Z,10.78
2023-03-19T04:47:02.238Z,10.78
2023-03-19T04:49:36.411Z,10.78
2023-03-19T04:52:07.059Z,10.77
2023-03-19T04:54:35.758Z,10.75
2023-03-19T04:57:05.107Z,10.72
2023-03-19T04:59:38.087Z,10.68
2023-03-19T05:02:07.246Z,10.66
2023-03-19T05:04:37.750Z,10.63
2023-03-19T05:07:11.782Z,10.61
2023-03-19T05:09:40.456Z,10.58
2023-03-19T05:12:09.294Z,10.56
2023-03-19T05:14:43.623Z,10.55
2023-03-19T05:17:21.647Z,10.56
2023-03-19T05:20:12.953Z,10.54
2023-03-19T05:22:48.730Z,10.53
2023-03-19T05:25:19.474Z,10.53
2023-03-19T05:27:48.530Z,10.52
2023-03-19T05:30:20.814Z,10.51
2023-03-19T05:33:12.657Z,10.51
2023-03-19T05:35:43.661Z,10.51
2023-03-19T05:38:22.082Z,10.50
2023-03-19T05:40:57.398Z,10.47
2023-03-19T05:43:33.299Z,10.46
2023-03-19T05:46:05.598Z,10.43
2023-03-19T05:48:35.436Z,10.42
2023-03-19T05:51:06.209Z,10.43
2023-03-19T05:53:40.338Z,10.41
2023-03-19T05:56:44.272Z,10.38
2023-03-19T05:59:24.917Z,10.39
2023-03-19T06:02:06.068Z,10.37
2023-03-19T06:04:34.698Z,10.36
2023-03-19T06:07:04.179Z,10.37
2023-03-19T06:09:34.737Z,10.38
2023-03-19T06:12:03.988Z,10.40
2023-03-19T06:14:51.931Z,10.42
2023-03-19T06:17:39.259Z,10.44
2023-03-19T06:20:13.000Z,10.48
2023-03-19T06:22:42.705Z,10.52
2023-03-19T06:25:12.934Z,10.56
2023-03-19T06:27:43.626Z,10.60
2023-03-19T06:30:24.119Z,10.63
2023-03-19T06:32:53.048Z,10.67
2023-03-19T06:35:22.742Z,10.71
2023-03-19T06:37:52.365Z,10.76
2023-03-19T06:40:22.001Z,10.81
2023-03-19T06:42:50.825Z,10.86
2023-03-19T06:45:20.367Z,10.91
2023-03-19T06:47:48.918Z,10.96
2023-03-19T06:50:18.066Z,11.01
2023-03-19T06:52:46.965Z,11.06
2023-03-19T06:55:15.577Z,11.10
2023-03-19T06:57:48.767Z,11.13
2023-03-19T07:00:18.622Z,11.18
2023-03-19T07:02:47.028Z,11.22
2023-03-19T07:05:15.518Z,11.21
2023-03-19T07:07:44.086Z,11.23
2023-03-19T07:10:12.814Z,11.24
2023-03-19T07:12:41.341Z,11.27
2023-03-19T07:15:12.410Z,11.28
2023-03-19T07:17:41.152Z,11.31
2023-03-19T07:20:11.094Z,11.32
2023-03-19T07:22:39.643Z,11.33
2023-03-19T07:25:09.128Z,11.34
2023-03-19T07:27:37.672Z,11.34
2023-03-19T07:30:06.742Z,11.36
2023-03-19T07:32:36.966Z,11.35
2023-03-19T07:35:06.189Z,11.34
2023-03-19T07:37:34.858Z,11.33
2023-03-19T07:40:03.678Z,11.35
2023-03-19T07:42:32.036Z,11.36
2023-03-19T07:45:02.261Z,11.39
2023-03-19T07:47:30.807Z,11.40
2023-03-19T07:50:00.816Z,11.43
2023-03-19T07:52:29.301Z,11.45
2023-03-19T07:54:57.481Z,11.50
2023-03-19T07:57:27.233Z,11.53
2023-03-19T07:59:55.494Z,11.59
2023-03-19T08:02:24.092Z,11.66
2023-03-19T08:04:52.608Z,11.72
2023-03-19T08:07:22.986Z,11.80
2023-03-19T08:09:51.586Z,11.88
2023-03-19T08:12:20.177Z,11.98
2023-03-19T08:14:48.783Z,12.08
2023-03-19T08:17:17.288Z,12.23
2023-03-19T08:19:46.760Z,12.34
2023-03-19T08:22:15.624Z,12.47
2023-03-19T08:24:45.226Z,12.61
2023-03-19T08:27:13.701Z,12.71
2023-03-19T08:29:42.300Z,12.83
2023-03-19T08:32:11.302Z,12.98
2023-03-19T08:34:39.527Z,13.15
2023-03-19T08:37:07.781Z,13.32
2023-03-19T08:39:36.361Z,13.49
2023-03-19T08:42:06.488Z,13.61
2023-03-19T08:44:35.023Z,13.72
2023-03-19T08:47:03.645Z,13.81
2023-03-19T08:49:32.261Z,13.94
2023-03-19T08:52:00.799Z,14.09
2023-03-19T08:54:29.377Z,14.26
2023-03-19T08:56:57.868Z,14.38
2023-03-19T08:59:27.495Z,14.57
2023-03-19T09:01:56.161Z,14.82
2023-03-19T09:04:25.018Z,15.11
2023-03-19T09:06:53.534Z,15.42
2023-03-19T09:09:24.831Z,15.65
2023-03-19T09:11:53.503Z,15.78
2023-03-19T09:14:25.319Z,15.85
2023-03-19T09:16:55.759Z,15.88
2023-03-19T09:19:24.649Z,15.94
2023-03-19T09:21:53.168Z,16.10
2023-03-19T09:24:21.410Z,16.42
2023-03-19T09:26:50.063Z,16.87
2023-03-19T09:29:18.865Z,17.15
2023-03-19T09:31:47.808Z,17.23
2023-03-19T09:34:18.634Z,17.24
2023-03-19T09:36:47.410Z,17.51
2023-03-19T09:39:15.872Z,17.85
2023-03-19T09:42:03.841Z,18.02
2023-03-19T09:44:36.040Z,18.07
2023-03-19T09:47:25.770Z,17.98
2023-03-19T09:49:59.253Z,17.84
2023-03-19T09:52:41.642Z,17.68
2023-03-19T09:55:21.176Z,17.57
2023-03-19T09:57:50.457Z,17.49
2023-03-19T10:00:24.855Z,17.44
2023-03-19T10:03:01.943Z,17.40
2023-03-19T10:05:51.816Z,17.37
2023-03-19T10:08:56.716Z,17.38
2023-03-19T10:11:40.803Z,17.40
2023-03-19T10:14:45.203Z,17.44
2023-03-19T10:17:19.135Z,17.42
2023-03-19T10:19:54.372Z,17.42
2023-03-19T10:22:30.761Z,17.46
2023-03-19T10:25:00.404Z,17.48
2023-03-19T10:27:31.032Z,17.48
2023-03-19T10:29:59.563Z,17.53
2023-03-19T10:32:39.692Z,17.66
2023-03-19T10:35:19.251Z,18.02
2023-03-19T10:37:50.094Z,18.31
2023-03-19T10:40:25.685Z,18.43
2023-03-19T10:43:08.298Z,18.62
2023-03-19T10:45:39.323Z,18.99
2023-03-19T10:48:13.007Z,19.45
2023-03-19T10:50:50.696Z,19.76
2023-03-19T10:53:34.285Z,19.83
2023-03-19T10:56:06.190Z,19.87
2023-03-19T10:58:36.883Z,19.91
2023-03-19T11:01:09.506Z,19.90
2023-03-19T11:03:41.320Z,19.97
2023-03-19T11:06:20.381Z,20.01
2023-03-19T11:08:57.622Z,19.83
2023-03-19T11:11:33.186Z,19.77
2023-03-19T11:14:09.951Z,19.81
2023-03-19T11:16:57.258Z,19.90
2023-03-19T11:19:29.537Z,20.17
2023-03-19T11:22:08.556Z,20.20
2023-03-19T11:24:41.791Z,20.09
2023-03-19T11:27:12.122Z,19.87
2023-03-19T11:29:44.245Z,19.69
2023-03-19T11:32:34.590Z,19.60
2023-03-19T11:35:07.433Z,19.65
2023-03-19T11:37:54.390Z,19.57
2023-03-19T11:40:37.418Z,19.43
2023-03-19T11:43:38.239Z,19.14
2023-03-19T11:46:30.861Z,18.88
2023-03-19T11:49:46.513Z,18.64
2023-03-19T11:52:23.697Z,18.44
2023-03-19T11:55:18.629Z,18.30
2023-03-19T11:58:23.262Z,18.22
2023-03-19T12:00:52.866Z,18.08
2023-03-19T12:03:58.206Z,17.91
2023-03-19T12:06:43.630Z,17.77
2023-03-19T12:09:23.232Z,17.64
2023-03-19T12:11:57.137Z,17.53
2023-03-19T12:14:42.295Z,17.42
2023-03-19T12:17:35.718Z,17.26
2023-03-19T12:20:21.338Z,17.20
2023-03-19T12:23:04.815Z,17.15
2023-03-19T12:25:54.188Z,17.09
2023-03-19T12:28:28.131Z,17.06
2023-03-19T12:31:19.438Z,17.02
2023-03-19T12:33:57.286Z,17.00
2023-03-19T12:36:30.327Z,16.86
2023-03-19T12:39:06.297Z,16.68
2023-03-19T12:41:41.616Z,16.49
2023-03-19T12:44:14.618Z,16.31
2023-03-19T12:46:49.979Z,16.25
2023-03-19T12:49:24.015Z,16.21
2023-03-19T12:52:02.145Z,16.16
2023-03-19T12:54:37.052Z,16.12
2023-03-19T12:57:09.598Z,15.99
2023-03-19T12:59:42.752Z,15.95
2023-03-19T13:02:25.845Z,15.88
2023-03-19T13:04:58.434Z,15.88
2023-03-19T13:07:35.572Z,15.85
2023-03-19T13:10:10.392Z,15.83
2023-03-19T13:12:39.910Z,15.76
2023-03-19T13:15:15.339Z,15.58
2023-03-19T13:17:58.284Z,15.36
2023-03-19T13:20:42.155Z,15.15
2023-03-19T13:23:21.928Z,14.99
2023-03-19T13:25:52.796Z,14.88
2023-03-19T13:28:29.503Z,14.76
2023-03-19T13:31:03.752Z,14.69
2023-03-19T13:33:38.595Z,14.64
2023-03-19T13:36:08.965Z,14.53
2023-03-19T13:38:42.648Z,14.46
2023-03-19T13:42:01.270Z,14.30
2023-03-19T13:44:42.810Z,14.11
2023-03-19T13:47:42.416Z,13.88
2023-03-19T13:50:51.978Z,13.69
2023-03-19T13:53:42.328Z,13.56
2023-03-19T13:56:28.582Z,13.47
2023-03-19T13:59:34.544Z,13.37
2023-03-19T14:02:05.159Z,13.35
2023-03-19T14:04:36.486Z,13.33
2023-03-19T14:07:18.985Z,13.31
2023-03-19T14:09:50.636Z,13.32
2023-03-19T14:12:32.791Z,13.31
2023-03-19T14:15:05.097Z,13.34
2023-03-19T14:17:37.559Z,13.38
2023-03-19T14:20:37.378Z,13.44
2023-03-19T14:23:36.132Z,13.49
2023-03-19T14:26:17.018Z,13.59
2023-03-19T14:28:58.254Z,13.75
2023-03-19T14:31:43.523Z,13.92
2023-03-19T14:34:25.737Z,14.09
2023-03-19T14:37:01.973Z,14.19
2023-03-19T14:39:41.126Z,14.28
2023-03-19T14:42:19.698Z,14.38
2023-03-19T14:45:40.313Z,14.51
2023-03-19T14:48:47.570Z,14.76
2023-03-19T14:51:37.704Z,15.10
2023-03-19T14:54:16.332Z,15.32
2023-03-19T14:56:49.094Z,15.50
2023-03-19T14:59:18.496Z,15.62
2023-03-19T15:01:52.818Z,15.70
2023-03-19T15:04:25.491Z,15.82
2023-03-19T15:06:57.002Z,16.07
2023-03-19T15:09:31.062Z,16.27
2023-03-19T15:12:37.507Z,16.35
2023-03-19T15:15:40.055Z,16.35
2023-03-19T15:18:12.409Z,16.42
2023-03-19T15:20:45.649Z,16.62
2023-03-19T15:23:26.915Z,16.73
2023-03-19T15:25:58.297Z,16.67
2023-03-19T15:28:29.957Z,16.64
2023-03-19T15:31:13.342Z,16.69
2023-03-19T15:33:49.508Z,16.71
2023-03-19T15:36:25.263Z,16.86
2023-03-19T15:38:58.412Z,17.08
2023-03-19T15:41:29.100Z,17.15
2023-03-19T15:43:59.594Z,17.06
2023-03-19T15:46:33.472Z,16.96
2023-03-19T15:49:07.372Z,16.99
2023-03-19T15:51:36.590Z,17.02
2023-03-19T15:54:06.233Z,17.05
2023-03-19T15:56:35.446Z,16.93
2023-03-19T15:59:05.474Z,16.78
2023-03-19T16:01:36.011Z,16.68
2023-03-19T16:04:09.023Z,16.60
2023-03-19T16:06:39.912Z,16.49
2023-03-19T16:09:23.153Z,16.34
2023-03-19T16:11:52.021Z,16.20
2023-03-19T16:14:27.628Z,16.02
2023-03-19T16:17:03.077Z,15.87
2023-03-19T16:19:37.562Z,15.74
2023-03-19T16:22:15.576Z,15.62
2023-03-19T16:24:48.222Z,15.52
2023-03-19T16:27:18.779Z,15.41
2023-03-19T16:29:50.343Z,15.31
2023-03-19T16:32:25.360Z,15.26
2023-03-19T16:34:55.941Z,15.24
2023-03-19T16:37:41.336Z,15.18
2023-03-19T16:40:47.898Z,15.12
2023-03-19T16:43:19.635Z,15.05
2023-03-19T16:46:04.188Z,14.97
2023-03-19T16:48:32.982Z,14.86
2023-03-19T16:51:01.654Z,14.75
2023-03-19T16:53:32.684Z,14.64
2023-03-19T16:56:03.399Z,14.55
2023-03-19T16:58:36.271Z,14.48
2023-03-19T17:01:13.382Z,14.41
2023-03-19T17:03:41.934Z,14.35
2023-03-19T17:06:12.198Z,14.32
2023-03-19T17:08:40.970Z,14.29
2023-03-19T17:11:17.558Z,14.26
2023-03-19T17:13:45.871Z,14.21
2023-03-19T17:16:15.625Z,14.14
2023-03-19T17:18:47.673Z,14.06
2023-03-19T17:21:22.298Z,13.97
2023-03-19T17:23:50.894Z,13.88
2023-03-19T17:26:22.733Z,13.82
2023-03-19T17:28:51.381Z,13.77
2023-03-19T17:31:27.188Z,13.71
2023-03-19T17:34:02.094Z,13.68
2023-03-19T17:36:30.292Z,13.61
2023-03-19T17:38:58.879Z,13.60
2023-03-19T17:41:27.488Z,13.60
2023-03-19T17:43:55.983Z,13.58
2023-03-19T17:46:28.155Z,13.57
2023-03-19T17:48:57.010Z,13.55
2023-03-19T17:51:26.002Z,13.52
2023-03-19T17:53:56.285Z,13.48
2023-03-19T17:56:26.542Z,13.42
2023-03-19T17:58:55.509Z,13.36
2023-03-19T18:01:28.309Z,13.30
2023-03-19T18:03:59.236Z,13.24
2023-03-19T18:06:33.966Z,13.19
2023-03-19T18:09:03.046Z,13.13
2023-03-19T18:11:31.554Z,13.07
2023-03-19T18:13:59.822Z,13.02
2023-03-19T18:16:32.725Z,12.97
2023-03-19T18:19:04.244Z,12.93
2023-03-19T18:21:33.158Z,12.89
2023-03-19T18:24:01.693Z,12.82
2023-03-19T18:26:30.285Z,12.75
2023-03-19T18:28:58.784Z,12.69
2023-03-19T18:31:30.278Z,12.62
2023-03-19T18:34:03.800Z,12.54
2023-03-19T18:36:33.762Z,12.48
2023-03-19T18:39:02.444Z,12.41
2023-03-19T18:41:30.873Z,12.36
2023-03-19T18:44:04.898Z,12.26
2023-03-19T18:46:35.620Z,12.18
2023-03-19T18:49:07.304Z,12.10
2023-03-19T18:51:35.951Z,12.03
2023-03-19T18:54:04.861Z,11.97
2023-03-19T18:56:34.520Z,11.88
2023-03-19T18:59:09.781Z,11.77
2023-03-19T19:01:39.467Z,11.70
2023-03-19T19:04:08.095Z,11.64
2023-03-19T19:06:47.189Z,11.61
2023-03-19T19:09:16.197Z,11.55
2023-03-19T19:11:47.635Z,11.50
2023-03-19T19:14:21.771Z,11.45
2023-03-19T19:16:52.277Z,11.42
2023-03-19T19:19:24.047Z,11.38
2023-03-19T19:21:53.077Z,11.36
2023-03-19T19:24:21.602Z,11.34
2023-03-19T19:26:53.970Z,11.30
2023-03-19T19:29:26.295Z,11.27
2023-03-19T19:31:56.432Z,11.25
2023-03-19T19:34:25.162Z,11.22
2023-03-19T19:36:57.451Z,11.22
2023-03-19T19:39:26.948Z,11.19
2023-03-19T19:41:56.693Z,11.15
2023-03-19T19:44:25.035Z,11.11
2023-03-19T19:46:55.927Z,11.04
2023-03-19T19:49:25.473Z,10.97
2023-03-19T19:51:54.022Z,10.91
2023-03-19T19:54:24.861Z,10.86
2023-03-19T19:56:53.170Z,10.81
2023-03-19T19:59:26.035Z,10.79
2023-03-19T20:01:56.279Z,10.74
2023-03-19T20:04:24.842Z,10.73
2023-03-19T20:06:53.921Z,10.70
2023-03-19T20:09:22.415Z,10.68
2023-03-19T20:11:51.082Z,10.65
2023-03-19T20:14:19.658Z,10.65
2023-03-19T20:16:48.745Z,10.63
2023-03-19T20:19:20.286Z,10.63
2023-03-19T20:21:48.900Z,10.60
2023-03-19T20:24:17.102Z,10.57
2023-03-19T20:26:45.598Z,10.55
2023-03-19T20:29:16.560Z,10.51
2023-03-19T20:31:46.832Z,10.47
2023-03-19T20:34:28.743Z,10.42
2023-03-19T20:37:02.201Z,10.36
2023-03-19T20:39:30.799Z,10.31
2023-03-19T20:41:59.621Z,10.27
2023-03-19T20:44:29.026Z,10.24
2023-03-19T20:46:58.930Z,10.22
2023-03-19T20:49:29.032Z,10.20
2023-03-19T20:51:57.526Z,10.19
2023-03-19T20:54:27.738Z,10.17
2023-03-19T20:56:56.351Z,10.16
2023-03-19T20:59:27.119Z,10.12
2023-03-19T21:01:56.371Z,10.07
2023-03-19T21:04:24.906Z,10.01
2023-03-19T21:06:54.369Z,9.98
2023-03-19T21:09:24.128Z,9.94
2023-03-19T21:11:53.905Z,9.93
2023-03-19T21:14:26.673Z,9.91
2023-03-19T21:16:55.398Z,9.90
2023-03-19T21:19:26.611Z,9.89
2023-03-19T21:21:55.610Z,9.88
2023-03-19T21:24:25.468Z,9.86
2023-03-19T21:26:56.827Z,9.83
2023-03-19T21:29:33.420Z,9.80
2023-03-19T21:32:02.021Z,9.78
2023-03-19T21:34:30.516Z,9.77
2023-03-19T21:36:59.051Z,9.74
2023-03-19T21:39:27.593Z,9.74
2023-03-19T21:41:57.211Z,9.72
2023-03-19T21:44:29.627Z,9.70
2023-03-19T21:46:58.020Z,9.66
2023-03-19T21:49:26.915Z,9.64
2023-03-19T21:51:57.069Z,9.62
2023-03-19T21:54:25.754Z,9.58
2023-03-19T21:56:54.330Z,9.56
2023-03-19T21:59:31.688Z,9.55
2023-03-19T22:01:59.907Z,9.54
2023-03-19T22:04:28.465Z,9.53
2023-03-19T22:06:57.379Z,9.50
2023-03-19T22:09:26.134Z,9.46
2023-03-19T22:11:54.725Z,9.40
2023-03-19T22:14:27.919Z,9.36
2023-03-19T22:16:57.524Z,9.34
2023-03-19T22:19:26.120Z,9.31
2023-03-19T22:21:55.156Z,9.27
2023-03-19T22:24:23.658Z,9.22
2023-03-19T22:26:58.688Z,9.19
2023-03-19T22:29:28.604Z,9.16
2023-03-19T22:31:57.722Z,9.13
2023-03-19T22:34:28.646Z,9.11
2023-03-19T22:36:57.122Z,9.10
2023-03-19T22:39:25.660Z,9.07
2023-03-19T22:41:54.190Z,9.10
2023-03-19T22:44:29.680Z,9.09
2023-03-19T22:46:59.975Z,9.09
2023-03-19T22:49:29.703Z,9.10
2023-03-19T22:51:58.686Z,9.10
2023-03-19T22:54:28.408Z,9.12
2023-03-19T22:56:56.964Z,9.14
2023-03-19T22:59:25.461Z,9.14
2023-03-19T23:01:55.354Z,9.17
2023-03-19T23:04:25.322Z,9.19
2023-03-19T23:06:55.920Z,9.21
2023-03-19T23:09:26.982Z,9.23
2023-03-19T23:11:56.226Z,9.27
2023-03-19T23:14:31.866Z,9.31
2023-03-19T23:17:06.841Z,9.35
2023-03-19T23:19:38.284Z,9.38
2023-03-19T23:22:14.853Z,9.39
2023-03-19T23:24:44.553Z,9.41
2023-03-19T23:27:25.121Z,9.40
2023-03-19T23:29:54.150Z,9.42
2023-03-19T23:32:23.865Z,9.43
2023-03-19T23:35:01.638Z,9.44
2023-03-19T23:37:30.735Z,9.48
2023-03-19T23:39:59.266Z,9.51
2023-03-19T23:42:31.371Z,9.54
2023-03-19T23:45:03.534Z,9.58
2023-03-19T23:47:33.851Z,9.60
2023-03-19T23:50:02.501Z,9.59
2023-03-19T23:52:31.005Z,9.63
2023-03-19T23:54:59.523Z,9.66
2023-03-19T23:57:28.143Z,9.67
2023-03-19T23:59:56.964Z,9.68
